x

Grays Reef - 40 Nm Southeast Of Savannah, Ga (41008) Wave Buoy

1:50am - Mon 27th Apr 2015 All times are EDT. -4 hours from GMT.

  • Sig Wave height 1.3ft
  • Swell Direction
  • Peak Period 5s
  • Average Period 4s
  • Wind
    13mph, 16mph gusts
  • Sea Temp 71°f
  • Air Temp 74°f
  • Sea Pressure 1004.6mb
  • Grays Reef - 40 Nm Southeast Of Savannah, Ga
  • Grays Reef - 40 Nm Southeast Of Savannah, Ga

More Historic Weather Station data

Upgrade to MSW Pro to gain access to the past 30 days of data for over 8000 Wavebouys and Weather Stations around the globe.

Join Pro

Comparision Forecast

View Surf forecast
   
Mon 04/27 1:50am 1.3ft 5s 4s 13 16 mph 1004.6mb 71f 74f
12:50am 1.3ft 4s 4s 7 9 mph 1004.8mb 71f 74f
Sun 04/26 11:50pm 1.3ft 5s 4s 9 11 mph 1005.2mb 71f 75f
10:50pm 1.3ft 5s 4s 7
mph
1005.1mb 72f 75f
9:50pm 1.3ft 5s 4s 7
mph
1005mb 72f 75f
8:50pm 1.6ft 5s 4s 9
mph
1004.5mb 72f 76f
7:50pm 1.6ft 5s 4s 9
mph
1004mb 72f 76f
6:50pm 1.6ft 6s 4s 9
mph
1003.6mb 72f 76f
5:50pm 1.6ft 5s 4s 11 16 mph 1003.5mb 73f 80f
4:50pm 1.6ft 5s 4s 11
mph
1003.6mb 72f 74f
3:50pm 2ft 5s 4s 9 11 mph 1003.9mb 72f 73f
2:50pm 2ft 5s 4s 11 13 mph 1004.7mb 71f 73f
1:50pm 2ft 5s 4s 9 11 mph 1005.5mb 71f 73f
12:50pm 2ft 5s 4s 7 9 mph 1005.8mb 70f 73f
11:50am 2.5ft 5s 4s 11
mph
1006.4mb 70f 72f
10:50am 2.5ft 5s 4s 11 13 mph 1006.1mb 69f 71f
9:50am 3ft 5s 4s 13 16 mph 1006.1mb 69f 71f
8:50am 3ft 5s 4s 18 22 mph 1005.9mb 69f 71f
7:50am 3ft 5s 4s 18 20 mph 1005.8mb 69f 71f
6:50am 2.5ft 5s 4s 16 20 mph 1005.1mb 69f 71f
5:50am 2.5ft 5s 4s 18 20 mph 1004.4mb 69f 71f
4:50am 2ft 5s 4s 16 18 mph 1004mb 69f 71f
3:50am  -   -   -  16 18 mph 1004.1mb 69f 71f
2:50am 2.5ft 5s 4s 11 13 mph 1004.4mb 69f 70f
1:50am 3ft 5s 4s 9 11 mph 1005.1mb 69f 69f
12:50am 3.5ft 4s 4s 7 9 mph 1006.2mb 69f 69f
Sat 04/25 11:50pm 2.5ft 6s 4s 2 4 mph 1007.1mb 69f 69f
10:50pm 3ft 6s 4s 13 18 mph 1008mb 69f 67f
9:50pm 3ft 5s 4s 16 18 mph 1006.7mb 69f 73f
8:50pm 3.5ft 5s 4s 16 20 mph 1005.5mb 69f 71f
7:50pm 3ft 5s 4s 16 18 mph 1005.5mb 69f 71f
6:50pm 3ft 5s 4s 9 11 mph 1006.2mb 69f 71f
5:50pm 3.5ft 5s 4s 13 16 mph 1006.8mb 69f 72f
4:50pm 3ft 4s 4s 18 22 mph 1006.6mb 69f 71f
3:50pm 2.5ft 4s 4s 16 18 mph 1007.6mb 69f 71f
2:50pm 2.5ft 4s 4s 16 18 mph 1008.8mb 69f 71f
1:50pm 3ft 4s 4s 18 22 mph 1010mb 69f 71f
12:50pm 2.5ft 8s 4s 16 18 mph 1011.6mb 69f 70f
11:50am 2.5ft 8s 4s 13 16 mph 1012.1mb 69f 70f
10:50am 2.5ft 8s 5s 13 16 mph 1012.7mb 69f 70f
9:50am 2.5ft 8s 5s 11 13 mph 1013mb 69f 70f
8:50am 2.5ft 8s 6s 4 7 mph 1014.1mb 69f 70f
7:50am 2.5ft 9s 6s 7 9 mph 1013.8mb 69f 70f
6:50am 2.5ft 9s 6s 9
mph
1013.4mb 69f 70f
5:50am 2.5ft 9s 6s 7 9 mph 1013.2mb 69f 70f
4:50am 2.5ft 9s 6s 7 9 mph 1013.2mb 69f 70f
3:50am 3ft 9s 6s 9 11 mph 1013.6mb 69f 69f
2:50am 3ft 15s 5s 9 11 mph 1014.2mb 69f 69f
1:50am 3.5ft 9s 5s 11 13 mph 1014.9mb 69f 69f
12:50am 3.5ft 8s 5s 9 11 mph 1015.9mb 69f 68f
Fri 04/24 11:50pm 3.5ft 7s 5s 13 16 mph 1015.5mb 69f 68f
10:50pm 3.5ft 7s 5s 13 16 mph 1015.9mb 69f 67f
9:50pm 3.5ft 7s 5s 13 16 mph 1016.2mb 69f 67f
8:50pm 3.5ft 7s 5s 9 11 mph 1017mb 69f 66f
7:50pm 4.5ft 8s 5s 11
mph
1016.9mb 69f 66f
6:50pm 4.5ft 7s 6s 9 11 mph 1017.2mb 69f 66f
5:50pm 4.5ft 7s 5s 11 13 mph 1017mb 69f 65f
4:50pm 4.5ft 7s 5s 11 13 mph 1017mb 69f 65f
3:50pm 4.5ft 6s 5s 13 18 mph 1017.2mb 69f 65f
2:50pm 4.5ft 6s 5s 16 18 mph 1018mb 69f 65f
1:50pm 4.5ft 6s 5s 18 22 mph 1018.4mb 69f 64f
12:50pm 5ft 6s 5s 20 25 mph 1017.6mb 69f 64f
11:50am 5ft 5s 4s 22 25 mph 1017.9mb 69f 64f
10:50am 4.5ft 5s 4s 22 27 mph 1017.7mb 69f 65f
9:50am 4.5ft 5s 4s 22 27 mph 1017.4mb 69f 65f
8:50am 3.5ft 4s 4s 22 27 mph 1016.3mb 69f 66f
7:50am 3ft 4s 4s 22 27 mph 1015.9mb 69f 67f
6:50am 2.5ft 4s 4s 20 25 mph 1015.1mb 69f 67f
5:50am 2ft 13s 3s 20 22 mph 1014.7mb 69f 68f
4:50am 1.3ft 14s 7s 18 22 mph 1014mb 69f 70f
3:50am 1.6ft 16s 8s 9 11 mph 1013.7mb 70f 71f
2:50am 1.3ft 15s 7s 7
mph
1013.6mb 70f 71f
1:50am 1.3ft 14s 6s 7
mph
1013.7mb 70f 71f
12:50am 1.3ft 15s 6s 9
mph
1013.7mb 70f 71f
Thu 04/23 11:50pm 1.6ft 17s 6s 9 11 mph 1013.8mb 70f 72f
10:50pm 1.3ft 14s 5s 7 9 mph 1013.3mb 71f 71f
9:50pm 1.3ft 15s 5s 7 9 mph 1012.9mb 70f 71f
8:50pm 1.3ft 14s 5s 9
mph
1012.8mb 71f 72f
7:50pm 1.3ft 13s 5s 9
mph
1012.9mb 71f 72f
6:50pm 1.3ft 10s 4s 7 9 mph 1012.9mb 71f 72f
5:50pm 1.3ft 9s 5s 9 11 mph 1012.9mb 71f 72f
4:50pm 1.3ft 9s 5s 11 13 mph 1012.7mb 71f 72f
3:50pm 1.3ft 8s 5s 7 9 mph 1012.9mb 72f 73f
2:50pm 1.3ft 12s 4s 4
mph
1013.4mb 71f 72f
1:50pm 1.3ft 9s 4s 4 7 mph 1014mb 71f 72f
12:50pm 1.3ft 13s 4s 2 4 mph 1014.6mb 72f 71f
11:50am 1.3ft 8s 4s 2
mph
1014.8mb 70f 70f
10:50am 1.3ft 8s 4s 4
mph
1014.8mb 69f 69f
9:50am 1.3ft 11s 4s 7
mph
1014.7mb 69f 69f
8:50am 1.6ft 8s 4s 9
mph
1014.8mb 69f 69f
7:50am 1.3ft 8s 4s 9 11 mph 1014.5mb 69f 69f